Time;durP1;ratioP1;P1;durP2;ratioP2;P2;SDS_P1;SDS_P2;PMS_P1;PMS_P2;Temp;Humidity;BMP_temperature;BMP_pressure;BME280_temperature;BME280_humidity;BME280_pressure;Samples;Min_cycle;Max_cycle;Signal;HPM_P1;HPM_P2
2023/05/02 00:01:14;;;;;;;40.13;34.27;;;;;;;;;;5013685;28;20176;-70
2023/05/02 00:03:41;;;;;;;39.33;34.57;;;;;;;;;;5013336;28;20262;-70
2023/05/02 00:06:07;;;;;;;40.67;35.53;;;;;;;;;;5013647;28;20222;-69
2023/05/02 00:08:33;;;;;;;40.43;35.30;;;;;;;;;;5013562;28;20183;-70
2023/05/02 00:10:59;;;;;;;44.77;38.60;;;;;;;;;;4995942;28;20180;-70
2023/05/02 00:13:25;;;;;;;44.10;37.37;;;;;;;;;;5013314;28;20178;-70
2023/05/02 00:15:51;;;;;;;44.50;37.73;;;;;;;;;;4995805;28;20207;-70
2023/05/02 00:18:17;;;;;;;45.90;36.80;;;;;;;;;;5013441;28;20183;-70
2023/05/02 00:20:44;;;;;;;46.07;38.73;;;;;;;;;;5013773;28;20184;-69
2023/05/02 00:23:12;;;;;;;46.73;40.80;;;;;;;;;;5014003;28;20252;-70
2023/05/02 00:25:43;;;;;;;49.13;40.90;;;;;;;;;;5013676;28;20183;-70
2023/05/02 00:28:09;;;;;;;49.03;40.53;;;;;;;;;;5013592;28;20199;-70
2023/05/02 00:30:35;;;;;;;51.60;42.70;;;;;;;;;;4995777;28;20203;-70
2023/05/02 00:33:01;;;;;;;49.17;41.73;;;;;;;;;;5013302;28;20523;-70
2023/05/02 00:35:27;;;;;;;50.97;42.73;;;;;;;;;;5013284;28;20206;-70
2023/05/02 00:37:53;;;;;;;54.30;43.40;;;;;;;;;;5013209;28;20203;-70
2023/05/02 00:40:19;;;;;;;56.27;43.93;;;;;;;;;;5013499;28;20258;-69
2023/05/02 00:42:45;;;;;;;56.40;45.50;;;;;;;;;;5013243;28;20168;-70
2023/05/02 00:45:11;;;;;;;58.20;46.50;;;;;;;;;;4995562;28;20269;-69
2023/05/02 00:47:37;;;;;;;59.10;46.27;;;;;;;;;;4995683;28;20188;-69
2023/05/02 00:50:04;;;;;;;60.53;46.10;;;;;;;;;;4995653;28;20275;-69
2023/05/02 00:52:30;;;;;;;61.27;46.90;;;;;;;;;;4995571;28;20188;-70
2023/05/02 00:54:56;;;;;;;62.03;47.30;;;;;;;;;;5013315;28;20202;-69
2023/05/02 00:57:24;;;;;;;67.27;48.30;;;;;;;;;;4995513;28;20237;-70
2023/05/02 00:59:50;;;;;;;60.97;47.90;;;;;;;;;;4995382;28;20215;-69
2023/05/02 01:02:30;;;;;;;66.40;48.87;;;;;;;;;;5013314;28;20172;-70
2023/05/02 01:05:00;;;;;;;60.07;48.60;;;;;;;;;;4995436;28;20609;-70
2023/05/02 01:07:32;;;;;;;60.63;47.23;;;;;;;;;;5013169;28;20180;-69
2023/05/02 01:10:11;;;;;;;62.07;47.27;;;;;;;;;;4995430;28;20188;-70
2023/05/02 01:12:42;;;;;;;68.00;47.47;;;;;;;;;;5013715;28;20533;-70
2023/05/02 01:15:10;;;;;;;63.70;47.60;;;;;;;;;;5014864;28;20293;-70
2023/05/02 01:17:37;;;;;;;63.07;45.47;;;;;;;;;;5016595;28;20685;-69
2023/05/02 01:20:08;;;;;;;53.87;41.70;;;;;;;;;;5017190;28;20183;-69
2023/05/02 01:22:34;;;;;;;57.47;43.03;;;;;;;;;;5016749;28;20183;-70
2023/05/02 01:25:03;;;;;;;61.27;44.97;;;;;;;;;;4998906;28;20257;-69
2023/05/02 01:27:48;;;;;;;53.67;42.30;;;;;;;;;;4999037;28;20184;-71
2023/05/02 01:30:14;;;;;;;56.60;42.37;;;;;;;;;;5016756;28;20188;-69
2023/05/02 01:32:42;;;;;;;56.57;42.80;;;;;;;;;;5016827;28;20184;-70
2023/05/02 01:35:08;;;;;;;57.30;41.93;;;;;;;;;;5017000;28;20225;-70
2023/05/02 01:37:37;;;;;;;50.40;39.47;;;;;;;;;;5016857;28;20207;-70
2023/05/02 01:40:04;;;;;;;51.57;40.07;;;;;;;;;;5016698;28;20680;-69
2023/05/02 01:42:31;;;;;;;55.27;40.60;;;;;;;;;;5016455;28;20589;-69
2023/05/02 01:44:58;;;;;;;50.13;37.03;;;;;;;;;;5016195;28;20206;-69
2023/05/02 01:47:25;;;;;;;50.47;36.20;;;;;;;;;;4998624;28;20641;-70
2023/05/02 01:49:51;;;;;;;48.57;36.30;;;;;;;;;;5016071;28;20186;-69
2023/05/02 01:52:19;;;;;;;53.00;38.13;;;;;;;;;;4998520;28;20278;-70
2023/05/02 01:54:45;;;;;;;49.57;35.57;;;;;;;;;;4998432;28;20291;-70
2023/05/02 01:57:12;;;;;;;47.93;34.87;;;;;;;;;;5016271;28;20294;-70
2023/05/02 01:59:40;;;;;;;48.03;33.23;;;;;;;;;;5016009;28;20175;-69
2023/05/02 02:02:07;;;;;;;46.57;32.07;;;;;;;;;;5016174;28;20207;-71
2023/05/02 02:04:34;;;;;;;44.13;32.33;;;;;;;;;;4998230;28;20275;-70
2023/05/02 02:07:01;;;;;;;43.67;31.67;;;;;;;;;;5016083;28;20642;-70
2023/05/02 02:09:27;;;;;;;43.63;32.57;;;;;;;;;;4998184;28;20211;-70
2023/05/02 02:11:59;;;;;;;41.33;31.53;;;;;;;;;;4998150;28;20179;-71
2023/05/02 02:14:27;;;;;;;44.33;33.80;;;;;;;;;;4998044;28;20215;-70
2023/05/02 02:16:54;;;;;;;47.73;37.37;;;;;;;;;;4998454;28;20682;-70
2023/05/02 02:19:22;;;;;;;49.80;37.57;;;;;;;;;;5015608;28;20688;-70
2023/05/02 02:21:48;;;;;;;52.37;39.43;;;;;;;;;;4997828;28;20561;-69
2023/05/02 02:24:16;;;;;;;51.67;37.17;;;;;;;;;;5015568;28;20196;-70
2023/05/02 02:26:42;;;;;;;51.83;38.00;;;;;;;;;;5015147;28;20184;-71
2023/05/02 02:29:08;;;;;;;46.00;32.53;;;;;;;;;;5015259;28;20549;-70
2023/05/02 02:31:34;;;;;;;48.30;32.63;;;;;;;;;;4997676;28;20180;-69
2023/05/02 02:34:01;;;;;;;44.33;31.80;;;;;;;;;;5015244;28;20195;-69
2023/05/02 02:36:46;;;;;;;38.57;28.03;;;;;;;;;;4997546;28;20203;-70
2023/05/02 02:39:16;;;;;;;33.30;25.97;;;;;;;;;;5015156;28;20168;-69
2023/05/02 02:41:45;;;;;;;40.33;25.77;;;;;;;;;;4998071;28;20263;-69
2023/05/02 02:44:30;;;;;;;37.80;26.00;;;;;;;;;;5016443;28;20246;-70
2023/05/02 02:47:01;;;;;;;33.70;23.97;;;;;;;;;;5016357;28;20230;-70
2023/05/02 02:49:35;;;;;;;33.50;25.57;;;;;;;;;;5017021;28;20251;-70
2023/05/02 02:52:04;;;;;;;35.47;26.37;;;;;;;;;;5014970;28;20172;-69
2023/05/02 02:54:42;;;;;;;33.80;24.83;;;;;;;;;;5015332;28;20205;-70
2023/05/02 02:57:14;;;;;;;36.43;26.43;;;;;;;;;;5014904;28;20220;-68
2023/05/02 02:59:46;;;;;;;31.87;24.17;;;;;;;;;;4997470;28;20218;-70
2023/05/02 03:02:12;;;;;;;31.80;23.30;;;;;;;;;;5040053;23;20178;-67
2023/05/02 03:04:40;;;;;;;33.00;25.27;;;;;;;;;;5034584;28;20164;-68
2023/05/02 03:07:07;;;;;;;33.07;24.73;;;;;;;;;;5034544;28;20641;-68
2023/05/02 03:09:43;;;;;;;34.73;24.60;;;;;;;;;;5034724;28;20175;-68
2023/05/02 03:12:09;;;;;;;29.10;23.13;;;;;;;;;;5034400;28;20229;-67
2023/05/02 03:14:35;;;;;;;31.97;22.97;;;;;;;;;;5034243;28;20205;-68
2023/05/02 03:17:02;;;;;;;30.20;21.73;;;;;;;;;;5016455;28;20235;-68
2023/05/02 03:19:28;;;;;;;29.77;20.53;;;;;;;;;;5016654;28;20178;-68
2023/05/02 03:21:54;;;;;;;24.43;18.90;;;;;;;;;;5034211;28;20230;-67
2023/05/02 03:24:20;;;;;;;24.83;17.33;;;;;;;;;;5034463;28;20244;-68
2023/05/02 03:26:47;;;;;;;23.63;17.17;;;;;;;;;;5034302;28;20641;-68
2023/05/02 03:29:13;;;;;;;21.87;16.23;;;;;;;;;;5016719;28;20654;-67
2023/05/02 03:31:39;;;;;;;21.23;15.53;;;;;;;;;;5016569;28;20186;-67
2023/05/02 03:34:05;;;;;;;23.30;15.77;;;;;;;;;;5033996;28;20703;-68
2023/05/02 03:36:31;;;;;;;18.97;14.63;;;;;;;;;;5034090;28;20278;-68
2023/05/02 03:38:57;;;;;;;24.43;15.30;;;;;;;;;;5015971;28;20179;-68
2023/05/02 03:41:26;;;;;;;19.90;15.10;;;;;;;;;;5034309;28;20539;-70
2023/05/02 03:43:52;;;;;;;19.67;14.10;;;;;;;;;;5033966;28;20689;-68
2023/05/02 03:46:18;;;;;;;19.43;14.43;;;;;;;;;;5016386;28;20187;-67
2023/05/02 03:48:45;;;;;;;18.97;14.60;;;;;;;;;;5034068;28;20653;-67
2023/05/02 03:51:11;;;;;;;20.20;13.30;;;;;;;;;;5016204;28;20210;-68
2023/05/02 03:53:37;;;;;;;19.43;14.07;;;;;;;;;;5034391;28;20198;-67
2023/05/02 03:56:03;;;;;;;16.77;12.33;;;;;;;;;;5033607;28;20574;-67
2023/05/02 03:58:29;;;;;;;18.37;13.20;;;;;;;;;;5034019;28;20179;-67
2023/05/02 04:00:55;;;;;;;19.23;12.83;;;;;;;;;;5033667;28;20179;-67
2023/05/02 04:03:22;;;;;;;19.80;13.33;;;;;;;;;;5033817;28;20274;-67
2023/05/02 04:05:50;;;;;;;19.27;14.00;;;;;;;;;;5033932;28;20284;-67
2023/05/02 04:08:16;;;;;;;19.87;13.70;;;;;;;;;;5016160;28;20293;-66
2023/05/02 04:10:43;;;;;;;22.37;14.30;;;;;;;;;;5016073;28;20206;-68
2023/05/02 04:13:09;;;;;;;19.00;14.13;;;;;;;;;;5016961;28;20199;-67
2023/05/02 04:15:35;;;;;;;21.73;14.43;;;;;;;;;;5016270;28;20183;-67
2023/05/02 04:18:01;;;;;;;18.13;14.50;;;;;;;;;;5034389;28;20265;-67
2023/05/02 04:20:27;;;;;;;19.17;14.57;;;;;;;;;;5034105;28;20183;-66
2023/05/02 04:22:53;;;;;;;22.43;15.63;;;;;;;;;;5016367;28;20202;-67
2023/05/02 04:25:19;;;;;;;21.30;15.67;;;;;;;;;;5016072;28;20183;-67
2023/05/02 04:27:45;;;;;;;24.43;16.83;;;;;;;;;;5033990;28;20241;-67
2023/05/02 04:30:11;;;;;;;27.10;17.87;;;;;;;;;;5015826;28;20183;-67
2023/05/02 04:32:37;;;;;;;29.07;19.63;;;;;;;;;;5033269;28;20656;-67
2023/05/02 04:35:03;;;;;;;29.40;19.60;;;;;;;;;;5015593;28;20195;-67
2023/05/02 04:37:29;;;;;;;28.57;20.23;;;;;;;;;;5015638;28;20742;-67
2023/05/02 04:39:55;;;;;;;30.13;20.67;;;;;;;;;;5015792;28;20195;-67
2023/05/02 04:42:21;;;;;;;30.93;21.87;;;;;;;;;;5033456;28;20195;-67
2023/05/02 04:44:48;;;;;;;30.20;22.50;;;;;;;;;;5015469;28;20198;-67
2023/05/02 04:47:14;;;;;;;34.50;23.30;;;;;;;;;;5033694;28;20190;-67
2023/05/02 04:49:41;;;;;;;36.13;24.27;;;;;;;;;;5036399;28;20175;-66
2023/05/02 04:52:07;;;;;;;43.43;25.07;;;;;;;;;;5037305;28;20577;-68
2023/05/02 04:54:34;;;;;;;37.00;24.53;;;;;;;;;;5019306;28;20233;-68
2023/05/02 04:57:02;;;;;;;41.60;25.87;;;;;;;;;;5037233;28;20244;-68
2023/05/02 04:59:28;;;;;;;32.97;22.47;;;;;;;;;;5019152;28;20209;-67
2023/05/02 05:01:54;;;;;;;32.57;24.07;;;;;;;;;;5036700;28;20175;-67
2023/05/02 05:04:20;;;;;;;28.07;19.07;;;;;;;;;;5036442;28;20285;-67
2023/05/02 05:06:47;;;;;;;21.60;15.37;;;;;;;;;;5018889;28;20623;-68
2023/05/02 05:09:13;;;;;;;21.97;13.57;;;;;;;;;;5036507;28;20195;-68
2023/05/02 05:11:41;;;;;;;17.03;11.83;;;;;;;;;;5036487;28;20183;-69
2023/05/02 05:14:07;;;;;;;15.47;11.20;;;;;;;;;;5018706;28;20210;-68
2023/05/02 05:16:33;;;;;;;16.60;11.00;;;;;;;;;;5018527;28;20206;-69
2023/05/02 05:18:59;;;;;;;19.67;11.90;;;;;;;;;;5036324;28;20262;-69
2023/05/02 05:21:26;;;;;;;16.53;11.53;;;;;;;;;;5036300;28;20185;-69
2023/05/02 05:23:52;;;;;;;14.27;10.57;;;;;;;;;;5018611;28;20341;-68
2023/05/02 05:26:19;;;;;;;16.77;10.73;;;;;;;;;;5036293;28;20215;-68
2023/05/02 05:28:45;;;;;;;16.17;11.00;;;;;;;;;;5036023;28;20190;-70
2023/05/02 05:31:12;;;;;;;17.23;10.63;;;;;;;;;;5036296;28;20558;-68
2023/05/02 05:33:38;;;;;;;17.33;10.00;;;;;;;;;;5036068;28;20206;-68
2023/05/02 05:36:04;;;;;;;17.90;9.80;;;;;;;;;;5036110;28;20318;-69
2023/05/02 05:38:30;;;;;;;16.20;9.00;;;;;;;;;;5036045;28;20171;-69
2023/05/02 05:40:57;;;;;;;16.00;9.10;;;;;;;;;;5018247;28;20179;-69
2023/05/02 05:43:22;;;;;;;13.37;8.90;;;;;;;;;;5018096;28;20199;-69
2023/05/02 05:45:51;;;;;;;18.93;8.63;;;;;;;;;;5036189;28;20183;-69
2023/05/02 05:48:17;;;;;;;15.27;8.27;;;;;;;;;;5018092;28;20228;-69
2023/05/02 05:50:43;;;;;;;13.77;7.33;;;;;;;;;;5035977;28;20674;-68
2023/05/02 05:53:09;;;;;;;18.93;7.30;;;;;;;;;;5018148;28;20199;-72
2023/05/02 05:55:36;;;;;;;17.73;6.87;;;;;;;;;;5036005;28;20191;-71
2023/05/02 05:58:02;;;;;;;16.57;6.67;;;;;;;;;;5035961;28;20199;-68
2023/05/02 06:00:28;;;;;;;19.30;6.47;;;;;;;;;;5035412;28;20250;-69
2023/05/02 06:02:54;;;;;;;14.73;6.83;;;;;;;;;;5035718;28;20341;-68
2023/05/02 06:05:20;;;;;;;15.23;5.93;;;;;;;;;;5018050;28;20222;-68
2023/05/02 06:07:46;;;;;;;13.13;5.57;;;;;;;;;;5018188;28;20179;-68
2023/05/02 06:10:12;;;;;;;13.23;5.93;;;;;;;;;;5035900;28;20580;-66
2023/05/02 06:12:38;;;;;;;10.43;5.10;;;;;;;;;;5035574;28;20237;-67
2023/05/02 06:15:05;;;;;;;13.57;6.33;;;;;;;;;;5035773;28;20207;-67
2023/05/02 06:17:31;;;;;;;15.77;6.47;;;;;;;;;;5018005;28;20206;-67
2023/05/02 06:19:57;;;;;;;16.07;5.67;;;;;;;;;;5017910;28;20270;-67
2023/05/02 06:22:23;;;;;;;13.07;5.30;;;;;;;;;;5035472;28;20286;-66
2023/05/02 06:24:48;;;;;;;10.30;5.43;;;;;;;;;;5035802;28;20221;-66
2023/05/02 06:27:15;;;;;;;11.30;4.50;;;;;;;;;;5035586;28;20270;-66
2023/05/02 06:29:41;;;;;;;12.33;5.23;;;;;;;;;;5035724;28;20588;-66
2023/05/02 06:32:07;;;;;;;8.80;4.37;;;;;;;;;;5017486;28;20187;-67
2023/05/02 06:34:33;;;;;;;11.07;4.47;;;;;;;;;;5035396;28;20208;-66
2023/05/02 06:36:59;;;;;;;12.00;5.30;;;;;;;;;;5035083;28;20653;-66
2023/05/02 06:39:25;;;;;;;11.13;4.97;;;;;;;;;;5035512;28;20186;-66
2023/05/02 06:41:51;;;;;;;10.17;4.90;;;;;;;;;;5035137;28;20175;-66
2023/05/02 06:44:17;;;;;;;7.17;5.00;;;;;;;;;;5017282;28;20202;-66
2023/05/02 06:46:43;;;;;;;11.83;5.40;;;;;;;;;;5017179;28;20668;-67
2023/05/02 06:49:09;;;;;;;9.60;4.47;;;;;;;;;;5017278;28;20202;-67
2023/05/02 06:51:35;;;;;;;8.90;4.50;;;;;;;;;;5035456;28;20270;-69
2023/05/02 06:54:01;;;;;;;8.60;4.17;;;;;;;;;;5017135;28;20250;-69
2023/05/02 06:56:27;;;;;;;7.20;3.10;;;;;;;;;;5017063;28;20207;-65
2023/05/02 06:58:53;;;;;;;5.73;3.40;;;;;;;;;;5016992;28;20183;-69
2023/05/02 07:01:19;;;;;;;8.80;3.40;;;;;;;;;;5034563;28;20179;-67
2023/05/02 07:03:46;;;;;;;8.77;3.53;;;;;;;;;;5016794;28;20743;-67
2023/05/02 07:06:12;;;;;;;9.30;3.40;;;;;;;;;;5034827;28;20179;-67
2023/05/02 07:08:38;;;;;;;9.17;3.40;;;;;;;;;;5034549;28;20538;-66
2023/05/02 07:11:04;;;;;;;7.37;3.77;;;;;;;;;;5016614;28;20179;-67
2023/05/02 07:13:30;;;;;;;6.37;3.30;;;;;;;;;;5015675;28;20199;-66
2023/05/02 07:15:56;;;;;;;7.93;3.27;;;;;;;;;;5016606;28;20718;-69
2023/05/02 07:18:22;;;;;;;11.83;3.73;;;;;;;;;;5016658;28;20186;-68
2023/05/02 07:20:48;;;;;;;8.70;3.47;;;;;;;;;;5016427;28;20175;-67
2023/05/02 07:23:13;;;;;;;13.27;3.80;;;;;;;;;;5016958;28;20233;-67
2023/05/02 07:25:39;;;;;;;4.30;3.10;;;;;;;;;;5016646;28;20179;-68
2023/05/02 07:28:06;;;;;;;8.03;3.47;;;;;;;;;;5034648;28;20183;-67
2023/05/02 07:30:32;;;;;;;12.40;3.90;;;;;;;;;;5034492;28;20207;-67
2023/05/02 07:33:03;;;;;;;11.80;3.92;;;;;;;;;;5082134;27;1231427;-66
2023/05/02 07:35:29;;;;;;;7.50;3.40;;;;;;;;;;5111204;28;20176;-67
2023/05/02 07:37:55;;;;;;;7.60;3.70;;;;;;;;;;5111071;28;20184;-65
2023/05/02 07:40:21;;;;;;;8.37;3.90;;;;;;;;;;5111754;28;20654;-67
2023/05/02 07:42:49;;;;;;;8.23;4.13;;;;;;;;;;5092741;28;20203;-66
2023/05/02 07:45:15;;;;;;;9.07;3.90;;;;;;;;;;5092855;28;20172;-67
2023/05/02 07:47:41;;;;;;;11.87;4.73;;;;;;;;;;5111239;28;20194;-65
2023/05/02 07:50:08;;;;;;;11.87;4.40;;;;;;;;;;5092770;28;20187;-66
2023/05/02 07:52:34;;;;;;;10.50;3.50;;;;;;;;;;5110759;28;20291;-65
2023/05/02 07:55:00;;;;;;;11.20;3.53;;;;;;;;;;5110795;28;20222;-65
2023/05/02 07:57:26;;;;;;;8.03;3.53;;;;;;;;;;5110791;28;20172;-65
2023/05/02 07:59:52;;;;;;;9.60;3.80;;;;;;;;;;5092657;28;20580;-66
2023/05/02 08:02:19;;;;;;;9.23;3.60;;;;;;;;;;5110509;28;20313;-67
2023/05/02 08:04:46;;;;;;;7.13;3.50;;;;;;;;;;5092501;28;20180;-67
2023/05/02 08:07:12;;;;;;;9.50;3.47;;;;;;;;;;5092713;28;20725;-68
2023/05/02 08:09:38;;;;;;;8.53;3.50;;;;;;;;;;5092535;28;20177;-67
2023/05/02 08:12:04;;;;;;;16.10;4.00;;;;;;;;;;5110642;28;20197;-67
2023/05/02 08:14:30;;;;;;;10.37;3.40;;;;;;;;;;5093346;28;20575;-67
2023/05/02 08:16:56;;;;;;;8.50;3.50;;;;;;;;;;5110383;28;20287;-67
2023/05/02 08:19:23;;;;;;;8.73;4.00;;;;;;;;;;5110524;28;20740;-67
2023/05/02 08:21:49;;;;;;;10.50;4.60;;;;;;;;;;5110439;28;20180;-68
2023/05/02 08:24:15;;;;;;;11.07;3.63;;;;;;;;;;5110913;28;20201;-69
2023/05/02 08:26:41;;;;;;;14.87;3.30;;;;;;;;;;5110497;28;20184;-67
2023/05/02 08:29:10;;;;;;;7.70;3.20;;;;;;;;;;5110181;28;20650;-67
2023/05/02 08:31:36;;;;;;;7.50;3.57;;;;;;;;;;5109885;28;20626;-67
2023/05/02 08:34:02;;;;;;;8.87;3.57;;;;;;;;;;5110125;28;20196;-67
2023/05/02 08:36:28;;;;;;;6.87;3.67;;;;;;;;;;5110091;28;20260;-67
2023/05/02 08:38:54;;;;;;;7.70;3.53;;;;;;;;;;5109982;28;20282;-67
2023/05/02 08:41:22;;;;;;;10.83;4.57;;;;;;;;;;5109849;28;20176;-66
2023/05/02 08:43:48;;;;;;;6.93;3.97;;;;;;;;;;5099983;28;20197;-67
2023/05/02 08:46:15;;;;;;;8.13;3.40;;;;;;;;;;5096528;28;20641;-65
2023/05/02 08:48:42;;;;;;;7.97;3.57;;;;;;;;;;5078329;28;20639;-66
2023/05/02 08:51:08;;;;;;;9.70;4.17;;;;;;;;;;5078103;28;20251;-66
2023/05/02 08:53:35;;;;;;;9.40;3.50;;;;;;;;;;5096130;28;20727;-66
2023/05/02 08:56:01;;;;;;;7.20;3.70;;;;;;;;;;5096126;28;20169;-67
2023/05/02 08:58:29;;;;;;;10.70;3.90;;;;;;;;;;5096136;28;20311;-68
2023/05/02 09:00:56;;;;;;;7.87;4.00;;;;;;;;;;5077844;28;20184;-67
2023/05/02 09:03:35;;;;;;;7.87;3.90;;;;;;;;;;5095774;28;20204;-67
2023/05/02 09:06:11;;;;;;;8.47;4.20;;;;;;;;;;5096110;28;20711;-65
2023/05/02 09:08:37;;;;;;;7.83;3.47;;;;;;;;;;5095880;28;20179;-67
2023/05/02 09:11:04;;;;;;;7.30;4.37;;;;;;;;;;5077576;28;20325;-66
2023/05/02 09:13:31;;;;;;;11.03;3.37;;;;;;;;;;5095768;28;20601;-67
2023/05/02 09:16:01;;;;;;;8.03;3.27;;;;;;;;;;5096206;28;20180;-67
2023/05/02 09:18:31;;;;;;;7.63;3.73;;;;;;;;;;5095941;28;20173;-66
2023/05/02 09:20:58;;;;;;;8.80;3.43;;;;;;;;;;5115462;22;20231;-69
2023/05/02 09:23:42;;;;;;;7.13;3.47;;;;;;;;;;5075547;28;20216;-69
2023/05/02 09:26:12;;;;;;;8.53;2.93;;;;;;;;;;5057063;28;20205;-69
2023/05/02 09:28:43;;;;;;;6.43;3.30;;;;;;;;;;5074725;28;20166;-70
2023/05/02 09:31:19;;;;;;;8.80;3.13;;;;;;;;;;5057330;28;20201;-69
2023/05/02 09:33:45;;;;;;;8.83;3.47;;;;;;;;;;5057163;28;20176;-69
2023/05/02 09:36:15;;;;;;;6.90;3.70;;;;;;;;;;5074952;28;20174;-69
2023/05/02 09:38:45;;;;;;;9.23;3.87;;;;;;;;;;5056868;28;20213;-69
2023/05/02 09:41:12;;;;;;;9.30;2.97;;;;;;;;;;5056661;28;20206;-70
2023/05/02 09:43:38;;;;;;;8.43;3.73;;;;;;;;;;5074601;28;20223;-70
2023/05/02 09:46:05;;;;;;;6.90;3.53;;;;;;;;;;5056499;28;20242;-69
2023/05/02 09:48:32;;;;;;;9.57;3.70;;;;;;;;;;5074977;28;20181;-70
2023/05/02 09:50:58;;;;;;;8.73;3.63;;;;;;;;;;5074520;28;20205;-69
2023/05/02 09:53:26;;;;;;;7.43;3.40;;;;;;;;;;5074326;28;20629;-69
2023/05/02 09:56:02;;;;;;;10.43;3.90;;;;;;;;;;5055395;28;20177;-70
2023/05/02 09:58:29;;;;;;;7.90;3.70;;;;;;;;;;5074401;28;20253;-70
2023/05/02 10:00:56;;;;;;;9.10;4.20;;;;;;;;;;5074283;28;20236;-70
2023/05/02 10:03:23;;;;;;;9.90;3.53;;;;;;;;;;5074245;28;20252;-70
2023/05/02 10:05:49;;;;;;;8.20;3.10;;;;;;;;;;5074090;28;20591;-70
2023/05/02 10:08:18;;;;;;;9.10;3.50;;;;;;;;;;5056221;28;20182;-70
2023/05/02 10:10:46;;;;;;;7.73;3.57;;;;;;;;;;5073861;28;20184;-69
2023/05/02 10:13:13;;;;;;;11.10;4.17;;;;;;;;;;5073938;28;20201;-70
2023/05/02 10:15:43;;;;;;;8.37;4.00;;;;;;;;;;5056044;28;20182;-70
2023/05/02 10:18:16;;;;;;;9.73;3.93;;;;;;;;;;5073955;28;20182;-70
2023/05/02 10:20:43;;;;;;;10.87;3.43;;;;;;;;;;5073757;28;20619;-69
2023/05/02 10:23:09;;;;;;;15.20;5.03;;;;;;;;;;5055772;28;20264;-69
2023/05/02 10:25:36;;;;;;;10.50;3.87;;;;;;;;;;5055754;28;20209;-70
2023/05/02 10:28:03;;;;;;;11.23;4.00;;;;;;;;;;5055819;28;20193;-70
2023/05/02 10:30:29;;;;;;;6.87;3.60;;;;;;;;;;5055742;28;20188;-70
2023/05/02 10:32:59;;;;;;;7.37;3.83;;;;;;;;;;5055708;28;20193;-69
2023/05/02 10:35:25;;;;;;;9.20;3.83;;;;;;;;;;5073768;28;20196;-70
2023/05/02 10:37:51;;;;;;;12.67;3.93;;;;;;;;;;5073561;28;20182;-69
2023/05/02 10:40:17;;;;;;;13.00;4.20;;;;;;;;;;5055541;28;20204;-69
2023/05/02 10:42:45;;;;;;;9.90;3.90;;;;;;;;;;5073320;28;20201;-69
2023/05/02 10:45:31;;;;;;;7.90;3.20;;;;;;;;;;5055933;28;20224;-69
2023/05/02 10:48:15;;;;;;;10.77;3.60;;;;;;;;;;5055830;28;20185;-69
2023/05/02 10:50:46;;;;;;;11.33;3.70;;;;;;;;;;5056164;28;20651;-69
2023/05/02 10:53:43;;;;;;;11.63;4.03;;;;;;;;;;5073582;28;20177;-69
2023/05/02 10:56:14;;;;;;;11.03;3.67;;;;;;;;;;5057581;28;20212;-70
2023/05/02 10:58:41;;;;;;;6.17;3.53;;;;;;;;;;5055615;28;20177;-69
2023/05/02 11:01:35;;;;;;;10.00;3.70;;;;;;;;;;5055447;28;20672;-69
2023/05/02 11:04:05;;;;;;;8.07;3.63;;;;;;;;;;5071248;28;20194;-70
2023/05/02 11:06:33;;;;;;;9.97;3.63;;;;;;;;;;5074731;28;20234;-70
2023/05/02 11:09:28;;;;;;;5.87;3.57;;;;;;;;;;5073953;28;20333;-69
2023/05/02 11:11:56;;;;;;;8.57;3.30;;;;;;;;;;5055981;28;20225;-69
2023/05/02 11:14:24;;;;;;;8.33;3.50;;;;;;;;;;5055602;28;20181;-70
2023/05/02 11:16:57;;;;;;;5.80;3.20;;;;;;;;;;5073595;28;20543;-70
2023/05/02 11:19:23;;;;;;;10.77;3.30;;;;;;;;;;5073402;28;20165;-70
2023/05/02 11:21:51;;;;;;;11.50;3.73;;;;;;;;;;5073818;28;20217;-70
2023/05/02 11:24:36;;;;;;;4.63;2.60;;;;;;;;;;5073270;28;20173;-71
2023/05/02 11:27:21;;;;;;;13.77;3.40;;;;;;;;;;5073468;28;20174;-71
2023/05/02 11:30:00;;;;;;;5.67;2.77;;;;;;;;;;5073268;28;20556;-70
2023/05/02 11:32:44;;;;;;;9.30;3.10;;;;;;;;;;5073010;28;20205;-70
2023/05/02 11:35:31;;;;;;;6.70;2.93;;;;;;;;;;5073546;28;20637;-70
2023/05/02 11:37:58;;;;;;;10.17;2.93;;;;;;;;;;5074298;28;20165;-69
2023/05/02 11:40:25;;;;;;;6.50;2.73;;;;;;;;;;5055621;28;20173;-69
2023/05/02 11:42:51;;;;;;;5.73;3.10;;;;;;;;;;5055433;28;20675;-69
2023/05/02 11:45:18;;;;;;;6.20;2.90;;;;;;;;;;5073581;28;20564;-70
2023/05/02 11:47:48;;;;;;;6.57;2.90;;;;;;;;;;5055639;28;20185;-70
2023/05/02 11:50:14;;;;;;;7.13;2.70;;;;;;;;;;5077353;28;20180;-69
2023/05/02 11:52:42;;;;;;;4.17;2.77;;;;;;;;;;5059439;28;20227;-67
2023/05/02 11:55:10;;;;;;;5.70;3.00;;;;;;;;;;5055175;28;20176;-67
2023/05/02 11:57:37;;;;;;;4.80;2.80;;;;;;;;;;5055067;28;20193;-67
2023/05/02 12:00:03;;;;;;;8.87;2.57;;;;;;;;;;5073512;28;20174;-68
2023/05/02 12:02:40;;;;;;;5.20;2.30;;;;;;;;;;5056701;28;20340;-69
2023/05/02 12:05:10;;;;;;;6.90;3.00;;;;;;;;;;5055048;28;20220;-68
2023/05/02 12:07:40;;;;;;;6.83;2.80;;;;;;;;;;5073089;28;20181;-68
2023/05/02 12:10:07;;;;;;;5.43;2.90;;;;;;;;;;5054973;28;20178;-68
2023/05/02 12:12:33;;;;;;;4.80;2.53;;;;;;;;;;5072625;28;20279;-69
2023/05/02 12:15:06;;;;;;;6.40;3.07;;;;;;;;;;5072804;28;20174;-68
2023/05/02 12:17:32;;;;;;;2.83;2.40;;;;;;;;;;5054689;28;20563;-68
2023/05/02 12:19:59;;;;;;;7.33;3.23;;;;;;;;;;5058557;28;20178;-67
2023/05/02 12:22:25;;;;;;;3.57;2.60;;;;;;;;;;5076391;28;20217;-68
2023/05/02 12:24:52;;;;;;;6.77;3.27;;;;;;;;;;5058638;28;20186;-67
2023/05/02 12:27:18;;;;;;;4.10;2.63;;;;;;;;;;5077061;28;20227;-67
2023/05/02 12:29:45;;;;;;;4.93;2.80;;;;;;;;;;5058908;28;20236;-68
2023/05/02 12:32:12;;;;;;;6.20;3.10;;;;;;;;;;5076810;28;20228;-67
2023/05/02 12:34:38;;;;;;;6.37;3.17;;;;;;;;;;5058887;28;20174;-68
2023/05/02 12:37:05;;;;;;;4.17;3.37;;;;;;;;;;5076668;28;20644;-68
2023/05/02 12:39:37;;;;;;;7.00;3.10;;;;;;;;;;5076199;28;20177;-68
2023/05/02 12:42:10;;;;;;;7.33;3.07;;;;;;;;;;5058133;28;20211;-68
2023/05/02 12:44:40;;;;;;;5.43;3.20;;;;;;;;;;5058126;28;20181;-68
2023/05/02 12:47:07;;;;;;;7.97;3.07;;;;;;;;;;5058042;28;20648;-68
2023/05/02 12:49:33;;;;;;;4.70;2.83;;;;;;;;;;5075976;28;20241;-68
2023/05/02 12:51:59;;;;;;;8.10;3.30;;;;;;;;;;5076081;28;20237;-68
2023/05/02 12:54:26;;;;;;;7.70;3.43;;;;;;;;;;5060759;28;20174;-69
2023/05/02 12:56:52;;;;;;;8.43;3.00;;;;;;;;;;5061486;28;20249;-68
2023/05/02 12:59:25;;;;;;;6.73;3.47;;;;;;;;;;5061860;28;20242;-68
2023/05/02 13:01:51;;;;;;;7.53;3.60;;;;;;;;;;5075846;28;20208;-68
2023/05/02 13:04:17;;;;;;;7.10;3.90;;;;;;;;;;5075710;28;20182;-68
2023/05/02 13:06:43;;;;;;;5.43;3.73;;;;;;;;;;5075795;28;20169;-68
2023/05/02 13:09:09;;;;;;;7.60;3.50;;;;;;;;;;5075560;28;20177;-68
2023/05/02 13:11:36;;;;;;;8.57;4.07;;;;;;;;;;5075222;28;20220;-69
2023/05/02 13:14:04;;;;;;;6.60;3.87;;;;;;;;;;5075321;28;20173;-68
2023/05/02 13:16:32;;;;;;;6.50;3.53;;;;;;;;;;5075326;28;20174;-68
2023/05/02 13:18:58;;;;;;;8.77;4.03;;;;;;;;;;5075540;28;20178;-68
2023/05/02 13:21:24;;;;;;;5.07;3.43;;;;;;;;;;5075035;28;20714;-68
2023/05/02 13:23:50;;;;;;;6.27;4.10;;;;;;;;;;5075195;28;20231;-68
2023/05/02 13:26:16;;;;;;;5.00;3.83;;;;;;;;;;5057073;28;20177;-68
2023/05/02 13:28:42;;;;;;;5.70;3.83;;;;;;;;;;5075054;28;20231;-68
2023/05/02 13:31:08;;;;;;;8.17;4.07;;;;;;;;;;5057074;28;20247;-68
2023/05/02 13:33:34;;;;;;;6.90;4.10;;;;;;;;;;5056891;28;20208;-68
2023/05/02 13:36:00;;;;;;;10.47;5.40;;;;;;;;;;5056913;28;20181;-67
2023/05/02 13:38:26;;;;;;;6.10;3.70;;;;;;;;;;5056899;28;20173;-67
2023/05/02 13:40:53;;;;;;;6.50;3.60;;;;;;;;;;5074819;28;20216;-68
2023/05/02 13:43:18;;;;;;;7.67;3.43;;;;;;;;;;5056810;28;20177;-68
2023/05/02 13:45:47;;;;;;;8.57;3.90;;;;;;;;;;5056817;28;20174;-68
2023/05/02 13:48:14;;;;;;;5.53;3.47;;;;;;;;;;5075006;28;20170;-68
2023/05/02 13:50:40;;;;;;;7.43;3.33;;;;;;;;;;5074753;28;20193;-68
2023/05/02 13:53:06;;;;;;;6.53;3.80;;;;;;;;;;5074942;28;20259;-68
2023/05/02 13:55:32;;;;;;;6.30;4.00;;;;;;;;;;5074932;28;20170;-68
2023/05/02 13:57:58;;;;;;;8.40;4.50;;;;;;;;;;5056434;28;20224;-69
2023/05/02 14:00:24;;;;;;;8.47;4.17;;;;;;;;;;5074531;28;20227;-68
2023/05/02 14:02:50;;;;;;;7.67;3.37;;;;;;;;;;5056521;28;20247;-68
2023/05/02 14:05:16;;;;;;;10.47;4.30;;;;;;;;;;5074469;28;20178;-67
2023/05/02 14:07:42;;;;;;;7.20;4.23;;;;;;;;;;5074422;28;20188;-67
2023/05/02 14:10:08;;;;;;;9.97;4.47;;;;;;;;;;5074342;28;20206;-67
2023/05/02 14:12:34;;;;;;;9.50;4.30;;;;;;;;;;5056229;28;20201;-68
2023/05/02 14:15:00;;;;;;;5.90;3.90;;;;;;;;;;5074574;28;20180;-68
2023/05/02 14:17:26;;;;;;;8.67;4.30;;;;;;;;;;5074125;28;20185;-68
2023/05/02 14:19:52;;;;;;;6.47;4.07;;;;;;;;;;5074042;28;20181;-68
2023/05/02 14:22:18;;;;;;;4.23;2.83;;;;;;;;;;5074002;28;20256;-68
2023/05/02 14:24:44;;;;;;;6.70;3.63;;;;;;;;;;5055872;28;20185;-68
2023/05/02 14:27:16;;;;;;;6.47;3.77;;;;;;;;;;5056122;28;20188;-68
2023/05/02 14:29:42;;;;;;;10.70;4.10;;;;;;;;;;5056138;28;20205;-67
2023/05/02 14:32:08;;;;;;;10.60;4.23;;;;;;;;;;5073946;28;20295;-68
2023/05/02 14:34:34;;;;;;;8.83;3.80;;;;;;;;;;5073826;28;20182;-68